Time;durP1;ratioP1;P1;durP2;ratioP2;P2;SDS_P1;SDS_P2;PMS_P1;PMS_P2;Temp;Humidity;BMP_temperature;BMP_pressure;BME280_temperature;BME280_humidity;BME280_pressure;Samples;Min_cycle;Max_cycle;Signal;HPM_P1;HPM_P2
2023/06/28 00:00:29;;;;;;;8.88;3.72;;;19.60;94.70;;;;;;5022020;28;20387;-88
2023/06/28 00:02:55;;;;;;;8.23;3.28;;;19.60;94.80;;;;;;5006598;28;20418;-91
2023/06/28 00:05:21;;;;;;;9.00;3.42;;;19.60;94.80;;;;;;5038346;28;20037;-92
2023/06/28 00:07:47;;;;;;;11.25;4.30;;;19.60;95.00;;;;;;5021999;28;20033;-92
2023/06/28 00:10:13;;;;;;;11.20;3.45;;;19.50;95.10;;;;;;5021651;28;20052;-93
2023/06/28 00:12:38;;;;;;;9.05;3.50;;;19.50;95.10;;;;;;5022087;28;20068;-92
2023/06/28 00:15:05;;;;;;;8.10;3.20;;;19.50;95.10;;;;;;5022070;28;20029;-91
2023/06/28 00:17:30;;;;;;;9.35;3.67;;;19.50;95.20;;;;;;5022953;28;20037;-92
2023/06/28 00:20:06;;;;;;;11.02;3.35;;;19.50;95.20;;;;;;5022920;28;20468;-91
2023/06/28 00:22:32;;;;;;;7.38;3.03;;;19.50;95.30;;;;;;5023543;28;20032;-92
2023/06/28 00:25:02;;;;;;;8.50;3.50;;;19.50;95.30;;;;;;5039879;28;20025;-89
2023/06/28 00:27:28;;;;;;;;;;;19.40;95.40;;;;;;5022010;28;20120;-89
2023/06/28 00:29:55;;;;;;;8.73;2.83;;;19.50;95.70;;;;;;5021293;28;19962;-89
2023/06/28 00:32:22;;;;;;;9.15;3.85;;;19.40;95.60;;;;;;5038204;28;20075;-89
2023/06/28 00:34:47;;;;;;;9.20;3.28;;;19.40;95.60;;;;;;5038056;28;20025;-89
2023/06/28 00:37:13;;;;;;;8.50;3.05;;;19.40;95.70;;;;;;5020839;28;20024;-89
2023/06/28 00:39:38;;;;;;;6.30;2.78;;;19.40;95.80;;;;;;5020569;28;20025;-89
2023/06/28 00:42:05;;;;;;;8.68;3.35;;;19.30;95.70;;;;;;5021346;28;20029;-93
2023/06/28 00:44:30;;;;;;;7.20;3.00;;;19.30;95.80;;;;;;5021813;28;20476;-92
2023/06/28 00:46:57;;;;;;;11.55;3.92;;;19.30;95.80;;;;;;5021047;28;20036;-92
2023/06/28 00:49:26;;;;;;;5.13;2.60;;;19.30;95.80;;;;;;5021334;28;20032;-92
2023/06/28 00:51:52;;;;;;;10.50;3.20;;;19.20;95.90;;;;;;5021674;28;20079;-92
2023/06/28 00:54:18;;;;;;;8.48;2.90;;;19.20;96.00;;;;;;5020965;28;20419;-93
2023/06/28 00:56:45;;;;;;;6.40;3.03;;;19.20;96.00;;;;;;5021108;28;20037;-92
2023/06/28 00:59:11;;;;;;;7.70;3.08;;;19.20;96.10;;;;;;5037394;28;20009;-88
2023/06/28 01:01:38;;;;;;;9.38;3.05;;;19.20;96.10;;;;;;5021051;28;20154;-89
2023/06/28 01:04:06;;;;;;;9.80;2.92;;;19.20;96.20;;;;;;5020296;28;20120;-89
2023/06/28 01:06:35;;;;;;;8.15;2.88;;;19.10;96.20;;;;;;5020710;28;20116;-89
2023/06/28 01:09:04;;;;;;;7.63;2.78;;;19.10;96.30;;;;;;5036953;28;20083;-89
2023/06/28 01:11:31;;;;;;;8.93;2.30;;;19.20;96.30;;;;;;5037877;28;20021;-89
2023/06/28 01:13:58;;;;;;;8.77;2.83;;;19.10;96.30;;;;;;5037489;28;20082;-89
2023/06/28 01:16:24;;;;;;;6.75;2.45;;;19.10;96.30;;;;;;5020737;28;20025;-91
2023/06/28 01:18:49;;;;;;;7.88;3.00;;;19.10;96.50;;;;;;5037083;28;20021;-91
2023/06/28 01:21:17;;;;;;;9.15;2.92;;;19.10;96.60;;;;;;5020624;28;20029;-90
2023/06/28 01:23:44;;;;;;;5.45;2.65;;;19.10;96.60;;;;;;5038717;28;20017;-87
2023/06/28 01:26:11;;;;;;;11.70;2.50;;;19.10;96.70;;;;;;5030127;28;20028;-89
2023/06/28 01:28:37;;;;;;;9.25;3.05;;;19.10;96.80;;;;;;5036987;28;20017;-89
2023/06/28 01:31:04;;;;;;;12.80;3.40;;;19.10;96.80;;;;;;5036621;28;20487;-91
2023/06/28 01:33:30;;;;;;;10.20;3.03;;;19.10;96.70;;;;;;5037090;28;20072;-92
2023/06/28 01:35:59;;;;;;;9.25;3.03;;;19.10;96.80;;;;;;5020360;28;20480;-92
2023/06/28 01:38:27;;;;;;;8.65;2.92;;;19.10;96.80;;;;;;5020605;28;20040;-91
2023/06/28 01:40:53;;;;;;;9.07;3.00;;;19.00;97.00;;;;;;5036668;28;20108;-90
2023/06/28 01:43:20;;;;;;;8.02;3.17;;;19.00;97.20;;;;;;5020310;28;20503;-91
2023/06/28 01:45:46;;;;;;;7.82;3.28;;;19.00;97.40;;;;;;5036896;28;20043;-92
2023/06/28 01:48:16;;;;;;;9.05;3.45;;;19.00;97.50;;;;;;5020600;28;20064;-92
2023/06/28 01:50:42;;;;;;;8.85;3.35;;;19.00;97.60;;;;;;5007706;28;20083;-92
2023/06/28 01:53:08;;;;;;;6.20;3.45;;;19.00;97.60;;;;;;5041805;28;20017;-93
2023/06/28 01:55:34;;;;;;;10.23;4.00;;;18.90;97.60;;;;;;5025153;28;20029;-92
2023/06/28 01:57:59;;;;;;;8.60;3.42;;;18.90;97.90;;;;;;5024300;28;20029;-93
2023/06/28 02:00:26;;;;;;;12.07;3.63;;;18.90;98.20;;;;;;5027093;28;20475;-90
2023/06/28 02:02:53;;;;;;;8.82;3.65;;;18.90;98.30;;;;;;5024214;28;20047;-90
2023/06/28 02:05:19;;;;;;;6.57;2.67;;;18.80;98.50;;;;;;5024380;28;20372;-90
2023/06/28 02:07:45;;;;;;;6.72;2.92;;;18.80;98.90;;;;;;5024028;28;20032;-91
2023/06/28 02:10:11;;;;;;;6.90;2.75;;;18.80;98.70;;;;;;5024531;28;20049;-90
2023/06/28 02:12:36;;;;;;;8.55;2.80;;;18.80;98.80;;;;;;5023656;28;20021;-89
2023/06/28 02:15:04;;;;;;;9.85;3.05;;;18.80;98.80;;;;;;5023253;28;20373;-89
2023/06/28 02:17:31;;;;;;;7.70;3.33;;;18.70;98.90;;;;;;5023539;28;20109;-90
2023/06/28 02:19:57;;;;;;;9.18;3.42;;;18.70;99.10;;;;;;5023818;28;20379;-90
2023/06/28 02:22:25;;;;;;;7.50;3.33;;;18.70;99.40;;;;;;5039790;28;20025;-92
2023/06/28 02:24:50;;;;;;;10.52;3.28;;;18.60;99.70;;;;;;5039916;28;20166;-93
2023/06/28 02:27:16;;;;;;;6.95;3.40;;;18.70;99.80;;;;;;5023343;28;20056;-90
2023/06/28 02:29:41;;;;;;;7.60;3.67;;;18.60;99.90;;;;;;5023347;28;20052;-92
2023/06/28 02:32:07;;;;;;;6.15;3.53;;;18.60;99.90;;;;;;5023268;28;20056;-93
2023/06/28 02:34:33;;;;;;;6.28;3.20;;;18.60;99.90;;;;;;5023225;28;20029;-92
2023/06/28 02:36:59;;;;;;;13.82;3.75;;;18.60;99.90;;;;;;5023179;28;20025;-91
2023/06/28 02:39:25;;;;;;;11.77;4.05;;;18.50;99.90;;;;;;5023171;28;20017;-92
2023/06/28 02:41:51;;;;;;;12.07;3.15;;;18.50;99.90;;;;;;5023515;28;20071;-92
2023/06/28 02:44:16;;;;;;;8.38;2.72;;;18.50;99.90;;;;;;5023136;28;20048;-92
2023/06/28 02:46:42;;;;;;;9.18;3.33;;;18.50;99.90;;;;;;5040389;28;20040;-91
2023/06/28 02:49:08;;;;;;;4.85;2.50;;;18.50;99.90;;;;;;5023219;28;20048;-91
2023/06/28 02:51:34;;;;;;;8.98;2.60;;;18.40;99.90;;;;;;5022953;28;20025;-92
2023/06/28 02:54:00;;;;;;;10.18;3.75;;;18.40;99.90;;;;;;5022714;28;20377;-92
2023/06/28 02:56:26;;;;;;;9.98;3.22;;;18.40;99.90;;;;;;5039610;28;20032;-91
2023/06/28 02:58:52;;;;;;;6.63;2.92;;;18.40;99.90;;;;;;5022867;28;20029;-94
2023/06/28 03:01:20;;;;;;;10.57;3.17;;;18.40;99.90;;;;;;5022997;28;20033;-93
2023/06/28 03:03:46;;;;;;;6.03;2.58;;;18.40;99.90;;;;;;5023979;28;20022;-94
2023/06/28 03:06:12;;;;;;;9.77;3.10;;;18.30;99.90;;;;;;5023349;28;20029;-93
2023/06/28 03:08:38;;;;;;;8.02;3.40;;;18.30;99.90;;;;;;5022862;28;20041;-94
2023/06/28 03:11:03;;;;;;;8.30;3.00;;;18.30;99.90;;;;;;5039430;28;20025;-94
2023/06/28 03:13:29;;;;;;;6.75;3.33;;;18.20;99.90;;;;;;5022218;28;20075;-88
2023/06/28 03:15:55;;;;;;;9.15;3.20;;;18.20;99.90;;;;;;5022128;28;20025;-88
2023/06/28 03:18:20;;;;;;;8.10;3.40;;;18.20;99.90;;;;;;5021788;28;20029;-89
2023/06/28 03:20:46;;;;;;;8.48;3.92;;;18.20;99.90;;;;;;5022307;28;20031;-88
2023/06/28 03:23:11;;;;;;;9.82;3.45;;;18.20;99.90;;;;;;5021793;28;20111;-88
2023/06/28 03:25:37;;;;;;;8.05;4.15;;;18.20;99.90;;;;;;5021750;28;20026;-87
2023/06/28 03:28:03;;;;;;;6.82;3.22;;;18.10;99.90;;;;;;5021692;28;20025;-92
2023/06/28 03:30:28;;;;;;;8.30;4.10;;;18.10;99.90;;;;;;5022065;28;20057;-92
2023/06/28 03:32:54;;;;;;;12.95;3.85;;;18.10;99.90;;;;;;5022019;28;20033;-92
2023/06/28 03:35:30;;;;;;;7.50;3.42;;;18.10;99.90;;;;;;5022674;28;20039;-91
2023/06/28 03:37:56;;;;;;;10.75;3.85;;;18.10;99.90;;;;;;5006623;28;20483;-91
2023/06/28 03:40:22;;;;;;;9.27;4.15;;;18.10;99.90;;;;;;5022023;28;20031;-91
2023/06/28 03:42:48;;;;;;;8.40;3.60;;;18.00;99.90;;;;;;5021849;28;20031;-92
2023/06/28 03:45:14;;;;;;;7.35;3.03;;;18.00;99.90;;;;;;5038831;28;20112;-87
2023/06/28 03:47:40;;;;;;;7.15;3.63;;;18.00;99.90;;;;;;5021373;28;20147;-88
2023/06/28 03:50:06;;;;;;;5.97;3.25;;;17.90;99.90;;;;;;5021347;28;20028;-88
2023/06/28 03:52:32;;;;;;;8.27;3.55;;;17.90;99.90;;;;;;5022434;28;20079;-88
2023/06/28 03:54:58;;;;;;;7.80;2.92;;;17.90;99.90;;;;;;5021155;28;20029;-89
2023/06/28 03:57:24;;;;;;;7.97;3.40;;;17.90;99.90;;;;;;5021353;28;20035;-88
2023/06/28 03:59:49;;;;;;;8.90;3.25;;;17.80;99.90;;;;;;5021436;28;20025;-89
2023/06/28 04:02:15;;;;;;;6.45;2.95;;;17.80;99.90;;;;;;5021459;28;20139;-90
2023/06/28 04:04:40;;;;;;;6.78;2.70;;;17.80;99.90;;;;;;5038013;28;20025;-91
2023/06/28 04:07:07;;;;;;;7.10;3.15;;;17.70;99.90;;;;;;5021251;28;20102;-90
2023/06/28 04:09:33;;;;;;;10.65;3.20;;;17.70;99.90;;;;;;5021379;28;20049;-91
2023/06/28 04:11:59;;;;;;;7.00;2.97;;;17.70;99.90;;;;;;5038692;28;20024;-90
2023/06/28 04:14:25;;;;;;;7.45;3.22;;;17.60;99.90;;;;;;5036945;28;20120;-90
2023/06/28 04:16:54;;;;;;;8.27;2.58;;;17.60;99.90;;;;;;5021553;28;20037;-90
2023/06/28 04:19:20;;;;;;;10.00;3.00;;;17.60;99.90;;;;;;5021084;28;20139;-88
2023/06/28 04:21:46;;;;;;;8.07;3.15;;;17.50;99.90;;;;;;5021140;28;20052;-88
2023/06/28 04:24:11;;;;;;;8.07;2.85;;;17.50;99.90;;;;;;5037431;28;20025;-88
2023/06/28 04:26:37;;;;;;;6.20;2.90;;;17.50;99.90;;;;;;5020684;28;20487;-94
2023/06/28 04:29:03;;;;;;;8.88;3.38;;;17.40;99.90;;;;;;5021494;28;20459;-95
2023/06/28 04:31:29;;;;;;;6.13;2.80;;;17.40;99.90;;;;;;5021001;28;20029;-92
2023/06/28 04:33:55;;;;;;;7.70;3.03;;;17.40;99.90;;;;;;5021321;28;20032;-93
2023/06/28 04:36:21;;;;;;;11.02;3.65;;;17.40;99.90;;;;;;5021056;28;20036;-93
2023/06/28 04:38:52;;;;;;;8.02;3.17;;;17.30;99.90;;;;;;5021198;28;20533;-94
2023/06/28 04:41:25;;;;;;;7.40;3.20;;;17.30;99.90;;;;;;5021833;28;20055;-93
2023/06/28 04:43:57;;;;;;;10.68;4.07;;;17.30;99.90;;;;;;5037395;28;20028;-94
2023/06/28 04:46:27;;;;;;;10.20;3.63;;;17.20;99.90;;;;;;5037406;28;20017;-94
2023/06/28 04:48:53;;;;;;;8.93;3.80;;;17.20;99.90;;;;;;5020565;28;20044;-93
2023/06/28 04:51:19;;;;;;;9.02;3.50;;;17.20;99.90;;;;;;5020610;28;20029;-91
2023/06/28 04:53:46;;;;;;;12.55;3.45;;;17.10;99.90;;;;;;5037215;28;20166;-92
2023/06/28 04:56:12;;;;;;;10.97;4.33;;;17.10;99.90;;;;;;5021029;28;20545;-92
2023/06/28 04:58:37;;;;;;;10.55;4.28;;;17.10;99.90;;;;;;5020467;28;20029;-92
2023/06/28 05:01:10;;;;;;;9.68;4.18;;;17.20;99.90;;;;;;5020602;28;20036;-94
2023/06/28 05:03:38;;;;;;;14.07;4.63;;;17.20;99.90;;;;;;5021228;28;20021;-92
2023/06/28 05:06:07;;;;;;;10.85;5.00;;;17.20;99.90;;;;;;5037170;28;20422;-93
2023/06/28 05:08:34;;;;;;;9.07;4.20;;;17.20;99.90;;;;;;5020542;28;20036;-91
2023/06/28 05:11:00;;;;;;;10.00;4.47;;;17.20;99.90;;;;;;5020072;28;20510;-91
2023/06/28 05:13:26;;;;;;;10.68;4.80;;;17.20;99.90;;;;;;5054374;28;20025;-90
2023/06/28 05:15:51;;;;;;;11.48;4.68;;;17.20;99.90;;;;;;5036403;28;20075;-90
2023/06/28 05:18:18;;;;;;;10.57;4.70;;;17.20;99.90;;;;;;5020042;28;20036;-90
2023/06/28 05:20:44;;;;;;;14.13;4.30;;;17.20;99.90;;;;;;5036312;28;20033;-90
2023/06/28 05:23:18;;;;;;;9.15;4.22;;;17.20;99.90;;;;;;5036570;28;20013;-90
2023/06/28 05:25:44;;;;;;;12.07;4.60;;;17.20;99.90;;;;;;5036187;28;20061;-91
2023/06/28 05:28:12;;;;;;;10.27;4.35;;;17.20;99.90;;;;;;5036778;28;20056;-89
2023/06/28 05:30:38;;;;;;;10.23;4.00;;;17.10;99.90;;;;;;5043230;28;20025;-90
2023/06/28 05:33:04;;;;;;;9.93;4.80;;;17.10;99.90;;;;;;5019956;28;20025;-90
2023/06/28 05:35:30;;;;;;;8.68;4.35;;;17.10;99.90;;;;;;5019913;28;20472;-90
2023/06/28 05:37:56;;;;;;;11.23;4.65;;;17.10;99.90;;;;;;5019983;28;20036;-91
2023/06/28 05:40:22;;;;;;;13.20;4.75;;;17.00;99.90;;;;;;5019785;28;20025;-90
2023/06/28 05:42:48;;;;;;;11.25;4.43;;;17.00;99.90;;;;;;5019817;28;20365;-89
2023/06/28 05:45:13;;;;;;;11.57;4.47;;;17.00;99.90;;;;;;5019835;28;20048;-89
2023/06/28 05:47:39;;;;;;;11.18;5.10;;;17.00;99.90;;;;;;5019647;28;20602;-88
2023/06/28 05:50:05;;;;;;;9.40;4.18;;;17.00;99.90;;;;;;5019349;28;20059;-88
2023/06/28 05:52:31;;;;;;;18.20;6.18;;;17.00;99.90;;;;;;5003202;28;20029;-89
2023/06/28 05:54:56;;;;;;;12.07;5.70;;;16.90;99.90;;;;;;5020014;28;20615;-89
2023/06/28 05:57:22;;;;;;;13.13;5.80;;;16.90;99.90;;;;;;5003088;28;20454;-90
2023/06/28 05:59:47;;;;;;;12.77;5.68;;;16.90;99.90;;;;;;5003217;28;20021;-90
2023/06/28 06:02:13;;;;;;;12.57;5.32;;;16.90;99.90;;;;;;5003115;28;20472;-90
2023/06/28 06:04:39;;;;;;;11.23;5.25;;;16.80;99.90;;;;;;5003382;28;20025;-90
2023/06/28 06:07:05;;;;;;;14.10;5.53;;;16.80;99.90;;;;;;5019575;28;20033;-91
2023/06/28 06:09:31;;;;;;;14.05;6.22;;;16.80;99.90;;;;;;5019442;28;20059;-90
2023/06/28 06:11:56;;;;;;;12.55;5.45;;;16.80;99.90;;;;;;5019449;28;20028;-90
2023/06/28 06:14:22;;;;;;;13.60;6.65;;;16.80;99.90;;;;;;5019598;28;20151;-90
2023/06/28 06:16:48;;;;;;;14.43;6.07;;;16.80;99.90;;;;;;5003323;28;20061;-93
2023/06/28 06:19:13;;;;;;;12.38;6.40;;;16.80;99.90;;;;;;5019510;28;20357;-92
2023/06/28 06:21:39;;;;;;;13.75;6.85;;;16.80;99.90;;;;;;5019510;28;20031;-93
2023/06/28 06:24:07;;;;;;;13.93;6.50;;;16.80;99.90;;;;;;5019469;28;20111;-90
2023/06/28 06:26:35;;;;;;;18.42;6.55;;;16.80;99.90;;;;;;5019940;28;20017;-91
2023/06/28 06:29:01;;;;;;;8.63;5.60;;;16.80;99.90;;;;;;5053451;28;20047;-91
2023/06/28 06:31:28;;;;;;;13.82;6.78;;;16.80;99.90;;;;;;5003295;28;20433;-94
2023/06/28 06:33:56;;;;;;;10.32;6.60;;;16.80;99.90;;;;;;5035849;28;20224;-93
2023/06/28 06:36:22;;;;;;;14.02;6.95;;;16.80;99.90;;;;;;5022499;28;20376;-93
2023/06/28 06:38:48;;;;;;;15.52;7.10;;;16.80;99.90;;;;;;5039623;28;20025;-89
2023/06/28 06:41:13;;;;;;;14.68;7.07;;;16.80;99.90;;;;;;5023434;28;20171;-90
2023/06/28 06:43:39;;;;;;;14.75;7.85;;;16.80;99.90;;;;;;5006527;28;20025;-90
2023/06/28 06:46:05;;;;;;;14.15;8.00;;;16.70;99.90;;;;;;5006482;28;20613;-89
2023/06/28 06:48:30;;;;;;;17.77;8.13;;;16.70;99.90;;;;;;5006860;28;20033;-89
2023/06/28 06:50:57;;;;;;;24.05;8.70;;;16.70;99.90;;;;;;5022731;28;20349;-89
2023/06/28 06:53:22;;;;;;;15.73;8.07;;;16.70;99.90;;;;;;5006373;28;20057;-89
2023/06/28 06:55:48;;;;;;;14.10;7.97;;;16.70;99.90;;;;;;5022453;28;20028;-90
2023/06/28 06:58:13;;;;;;;17.02;9.00;;;16.70;99.90;;;;;;5006216;28;20040;-89
2023/06/28 07:00:39;;;;;;;13.70;7.75;;;16.70;99.90;;;;;;5005996;28;20028;-89
2023/06/28 07:03:05;;;;;;;17.98;7.90;;;16.60;99.90;;;;;;5006055;28;20111;-89
2023/06/28 07:05:30;;;;;;;19.65;8.65;;;16.60;99.90;;;;;;5022391;28;20025;-90
2023/06/28 07:07:56;;;;;;;17.63;9.15;;;16.70;99.90;;;;;;5022643;28;20091;-90
2023/06/28 07:10:22;;;;;;;18.00;9.18;;;16.70;99.90;;;;;;5005818;28;20128;-91
2023/06/28 07:12:47;;;;;;;14.73;7.97;;;16.70;99.90;;;;;;5022672;28;20082;-91
2023/06/28 07:15:13;;;;;;;14.63;7.72;;;16.80;99.90;;;;;;5006064;28;20028;-92
2023/06/28 07:17:39;;;;;;;19.95;8.57;;;16.70;99.90;;;;;;5022266;28;20090;-91
2023/06/28 07:20:07;;;;;;;18.02;8.65;;;16.80;99.90;;;;;;5036695;28;20150;-92
2023/06/28 07:22:33;;;;;;;18.98;8.85;;;16.80;99.90;;;;;;5018138;28;20087;-92
2023/06/28 07:25:02;;;;;;;14.02;8.20;;;16.80;99.90;;;;;;5018305;28;20026;-92
2023/06/28 07:27:28;;;;;;;19.27;8.65;;;16.80;99.90;;;;;;5035431;28;20018;-92
2023/06/28 07:29:55;;;;;;;13.95;8.00;;;16.80;99.90;;;;;;5019078;28;20037;-92
2023/06/28 07:32:21;;;;;;;20.50;8.27;;;16.90;99.90;;;;;;5018891;28;20392;-92
2023/06/28 07:34:46;;;;;;;20.58;8.95;;;16.90;99.90;;;;;;5018782;28;20030;-91
2023/06/28 07:37:12;;;;;;;21.25;9.10;;;16.90;99.90;;;;;;5035226;28;20034;-92
2023/06/28 07:39:38;;;;;;;18.67;9.48;;;16.90;99.90;;;;;;5019015;28;20021;-90
2023/06/28 07:42:04;;;;;;;18.92;9.20;;;16.90;99.90;;;;;;5034990;28;20010;-92
2023/06/28 07:44:29;;;;;;;18.38;9.70;;;16.90;99.90;;;;;;5018757;28;20457;-91
2023/06/28 07:46:55;;;;;;;19.00;8.80;;;17.00;99.90;;;;;;5018317;28;20037;-92
2023/06/28 07:49:21;;;;;;;13.15;7.32;;;17.00;99.90;;;;;;5018835;28;20033;-92
2023/06/28 07:51:47;;;;;;;15.30;8.10;;;17.00;99.90;;;;;;4986430;28;20123;-92
2023/06/28 07:54:12;;;;;;;13.07;7.95;;;17.00;99.90;;;;;;4986274;28;20033;-91
2023/06/28 07:56:38;;;;;;;16.63;7.85;;;17.10;99.90;;;;;;4986311;28;20032;-93
2023/06/28 07:59:05;;;;;;;13.63;6.82;;;17.10;99.90;;;;;;5002512;28;20051;-92
2023/06/28 08:01:33;;;;;;;16.85;7.72;;;17.10;99.90;;;;;;4986762;28;20049;-94
2023/06/28 08:03:59;;;;;;;16.55;7.60;;;17.10;99.90;;;;;;5003040;28;20017;-94
2023/06/28 08:06:25;;;;;;;12.32;6.93;;;17.20;99.90;;;;;;5003058;28;20037;-94
2023/06/28 08:08:51;;;;;;;15.52;7.88;;;17.20;99.90;;;;;;4986383;28;20026;-93
2023/06/28 08:11:16;;;;;;;23.52;7.82;;;17.20;99.90;;;;;;4986477;28;20033;-92
2023/06/28 08:13:42;;;;;;;15.85;7.05;;;17.20;99.90;;;;;;4985663;28;20061;-92
2023/06/28 08:16:10;;;;;;;15.32;7.90;;;17.20;99.90;;;;;;4985809;28;20045;-92
2023/06/28 08:18:36;;;;;;;12.00;7.07;;;17.20;99.90;;;;;;5001529;28;20043;-92
2023/06/28 08:21:02;;;;;;;12.00;6.97;;;17.20;99.90;;;;;;5003837;28;20013;-92
2023/06/28 08:23:27;;;;;;;18.80;8.00;;;17.30;99.90;;;;;;5017941;28;20021;-92
2023/06/28 08:25:53;;;;;;;17.73;7.53;;;17.30;99.90;;;;;;5034489;28;20021;-92
2023/06/28 08:28:18;;;;;;;15.07;7.30;;;17.30;99.90;;;;;;5018415;28;20022;-92
2023/06/28 08:30:44;;;;;;;13.38;6.80;;;17.30;99.90;;;;;;5018773;28;20038;-93
2023/06/28 08:33:12;;;;;;;17.52;7.10;;;17.30;99.90;;;;;;5018903;28;20029;-94
2023/06/28 08:35:37;;;;;;;17.17;7.05;;;17.40;99.90;;;;;;5034707;28;20061;-94
2023/06/28 08:38:03;;;;;;;13.32;6.70;;;17.40;99.90;;;;;;5018670;28;20065;-94
2023/06/28 08:40:30;;;;;;;13.88;6.45;;;17.40;99.90;;;;;;5018501;28;20048;-94
2023/06/28 08:43:00;;;;;;;12.18;6.72;;;17.40;99.90;;;;;;5018233;28;20022;-93
2023/06/28 08:45:26;;;;;;;16.25;7.53;;;17.50;99.90;;;;;;5034685;28;20021;-92
2023/06/28 08:47:54;;;;;;;17.15;7.30;;;17.50;99.90;;;;;;5034698;28;20472;-92
2023/06/28 08:50:21;;;;;;;15.65;7.22;;;17.50;99.90;;;;;;5034346;28;20064;-91
2023/06/28 08:52:47;;;;;;;15.55;7.07;;;17.50;99.90;;;;;;5033990;28;20026;-91
2023/06/28 08:55:13;;;;;;;14.38;6.95;;;17.50;99.90;;;;;;5034020;28;20025;-91
2023/06/28 08:57:40;;;;;;;16.77;7.43;;;17.50;99.90;;;;;;5017220;28;20036;-91
2023/06/28 09:00:10;;;;;;;16.73;7.45;;;17.60;99.90;;;;;;5016758;28;20021;-91
2023/06/28 09:02:36;;;;;;;18.00;8.23;;;17.60;99.90;;;;;;5033829;28;20018;-90
2023/06/28 09:05:03;;;;;;;15.57;6.75;;;17.60;99.90;;;;;;5017252;28;20021;-93
2023/06/28 09:07:33;;;;;;;22.98;7.32;;;17.60;99.90;;;;;;5017087;28;20044;-92
2023/06/28 09:09:59;;;;;;;19.02;7.45;;;17.60;99.90;;;;;;5033234;28;20052;-92
2023/06/28 09:12:33;;;;;;;16.73;7.30;;;17.60;99.90;;;;;;5017287;28;20111;-92
2023/06/28 09:14:59;;;;;;;16.45;8.18;;;17.70;99.90;;;;;;5017488;28;20025;-92
2023/06/28 09:17:25;;;;;;;17.27;8.05;;;17.70;99.90;;;;;;5017258;28;20370;-94
2023/06/28 09:19:52;;;;;;;13.80;7.45;;;17.70;99.90;;;;;;5033289;28;20017;-92
2023/06/28 09:22:18;;;;;;;13.77;7.40;;;17.80;99.90;;;;;;5016604;28;20053;-93
2023/06/28 09:24:49;;;;;;;15.57;7.55;;;17.80;99.90;;;;;;5016763;28;20060;-93
2023/06/28 09:27:15;;;;;;;;;;;17.80;99.90;;;;;;5017599;28;20484;-91
2023/06/28 09:29:40;;;;;;;15.77;6.72;;;17.80;99.90;;;;;;5033592;28;19932;-91
2023/06/28 09:32:07;;;;;;;16.90;8.25;;;17.80;99.90;;;;;;5016978;28;20427;-91
2023/06/28 09:34:35;;;;;;;16.70;8.30;;;17.80;99.90;;;;;;5016966;28;20041;-92
2023/06/28 09:37:00;;;;;;;16.73;7.32;;;17.80;99.90;;;;;;5036495;28;20116;-92
2023/06/28 09:39:26;;;;;;;19.38;7.63;;;17.80;99.90;;;;;;5036413;28;20051;-92
2023/06/28 09:41:53;;;;;;;16.02;6.80;;;17.80;99.90;;;;;;5020063;28;20487;-92
2023/06/28 09:44:30;;;;;;;13.77;7.00;;;17.90;99.90;;;;;;5036427;28;20024;-92
2023/06/28 09:47:05;;;;;;;16.83;7.43;;;17.90;99.90;;;;;;5020290;28;20029;-92
2023/06/28 09:49:31;;;;;;;17.80;8.07;;;17.90;99.90;;;;;;5036467;28;20021;-92
2023/06/28 09:52:00;;;;;;;18.95;8.70;;;17.90;99.90;;;;;;5020002;28;20025;-92
2023/06/28 09:54:40;;;;;;;18.30;7.90;;;18.00;99.90;;;;;;5036621;28;20083;-92
2023/06/28 09:57:06;;;;;;;14.27;7.60;;;18.00;99.90;;;;;;5036504;28;20480;-91
2023/06/28 09:59:33;;;;;;;15.30;7.95;;;18.00;99.90;;;;;;5019824;28;20029;-93
2023/06/28 10:02:00;;;;;;;15.40;8.57;;;18.10;99.90;;;;;;5020018;28;20033;-93
2023/06/28 10:04:28;;;;;;;14.63;9.15;;;18.10;99.90;;;;;;5036167;28;20027;-92
2023/06/28 10:06:59;;;;;;;14.65;8.73;;;18.10;99.90;;;;;;5019757;28;20543;-91
2023/06/28 10:09:29;;;;;;;15.27;8.18;;;18.10;99.90;;;;;;5036559;28;20041;-91
2023/06/28 10:11:57;;;;;;;15.43;8.30;;;18.10;99.90;;;;;;5037576;28;20035;-92
2023/06/28 10:14:25;;;;;;;18.08;9.00;;;18.10;99.90;;;;;;5040016;28;20111;-92
2023/06/28 10:16:54;;;;;;;20.23;10.05;;;18.20;99.90;;;;;;5023569;28;20037;-92
2023/06/28 10:19:21;;;;;;;16.15;8.20;;;18.20;99.90;;;;;;5039951;28;20071;-92
2023/06/28 10:21:47;;;;;;;18.73;8.25;;;18.20;99.90;;;;;;5020111;28;20059;-92
2023/06/28 10:24:14;;;;;;;19.08;8.50;;;18.20;99.90;;;;;;5020012;28;20029;-92
2023/06/28 10:26:41;;;;;;;14.45;8.57;;;18.20;99.90;;;;;;5020413;28;20112;-93
2023/06/28 10:29:07;;;;;;;16.95;8.52;;;18.30;99.90;;;;;;5037534;28;20024;-92
2023/06/28 10:31:33;;;;;;;18.70;8.55;;;18.30;99.90;;;;;;5020070;28;20386;-92
2023/06/28 10:33:59;;;;;;;17.60;8.45;;;18.40;99.90;;;;;;5019944;28;20476;-92
2023/06/28 10:36:26;;;;;;;17.45;8.45;;;18.40;99.90;;;;;;5019997;28;20029;-91
2023/06/28 10:38:52;;;;;;;13.93;8.43;;;18.40;99.90;;;;;;5020067;28;20036;-95
2023/06/28 10:41:19;;;;;;;15.05;8.75;;;18.40;99.90;;;;;;5020023;28;20559;-92
2023/06/28 10:43:45;;;;;;;16.25;8.35;;;18.50;99.90;;;;;;5036630;28;20534;-93
2023/06/28 10:46:22;;;;;;;21.83;9.25;;;18.50;99.90;;;;;;5019925;28;20029;-91
2023/06/28 10:48:51;;;;;;;18.38;8.23;;;18.60;99.90;;;;;;5036061;28;20021;-93
2023/06/28 10:51:20;;;;;;;17.42;9.18;;;18.60;99.90;;;;;;5019844;28;20029;-93
2023/06/28 10:54:04;;;;;;;14.75;8.73;;;18.70;99.90;;;;;;5019500;28;20048;-93
2023/06/28 10:56:47;;;;;;;17.45;8.68;;;18.80;99.90;;;;;;5004555;28;20029;-92
2023/06/28 10:59:13;;;;;;;18.27;9.18;;;18.80;99.90;;;;;;5019569;28;20014;-93
2023/06/28 11:01:54;;;;;;;17.05;9.18;;;18.90;99.90;;;;;;5003591;28;20141;-93
2023/06/28 11:04:22;;;;;;;20.63;8.70;;;18.90;99.90;;;;;;5003407;28;20025;-92
2023/06/28 11:06:48;;;;;;;16.10;8.63;;;18.90;99.90;;;;;;5019430;28;20055;-92
2023/06/28 11:09:19;;;;;;;16.52;9.40;;;19.00;99.90;;;;;;4987155;28;20025;-92
2023/06/28 11:11:56;;;;;;;20.85;9.48;;;19.10;99.90;;;;;;5019403;28;20026;-93
2023/06/28 11:14:32;;;;;;;16.77;8.77;;;19.20;99.90;;;;;;5019671;28;20021;-92
2023/06/28 11:17:06;;;;;;;13.88;8.60;;;19.30;99.90;;;;;;5002473;28;20507;-88
2023/06/28 11:19:32;;;;;;;13.10;8.75;;;19.40;99.90;;;;;;5019236;28;20029;-89
2023/06/28 11:21:59;;;;;;;19.00;9.55;;;19.50;99.90;;;;;;5001957;28;20384;-89
2023/06/28 11:24:41;;;;;;;16.15;9.10;;;19.60;99.90;;;;;;5019009;28;20025;-89
2023/06/28 11:27:14;;;;;;;13.63;9.32;;;19.60;99.90;;;;;;5004758;28;20392;-89
2023/06/28 11:29:57;;;;;;;13.65;8.90;;;19.70;99.90;;;;;;5002441;28;20026;-89
2023/06/28 11:32:35;;;;;;;15.70;9.60;;;19.80;99.90;;;;;;5004219;28;20041;-92
2023/06/28 11:35:02;;;;;;;13.82;8.30;;;19.90;99.90;;;;;;5018974;28;20390;-92
2023/06/28 11:37:30;;;;;;;17.52;9.20;;;19.90;99.90;;;;;;5018734;28;20563;-91
2023/06/28 11:39:56;;;;;;;13.55;8.88;;;20.00;99.90;;;;;;5018872;28;20018;-92
2023/06/28 11:42:21;;;;;;;16.35;8.88;;;20.00;99.90;;;;;;5002658;28;20040;-92
2023/06/28 11:44:50;;;;;;;15.88;8.57;;;20.00;99.90;;;;;;4986414;28;20034;-92
2023/06/28 11:47:22;;;;;;;13.30;8.45;;;20.00;99.90;;;;;;5018608;28;20116;-92
2023/06/28 11:49:48;;;;;;;16.85;8.70;;;20.00;99.90;;;;;;5018835;28;20025;-93
2023/06/28 11:52:18;;;;;;;18.38;10.32;;;20.10;99.90;;;;;;5002401;28;20025;-92
2023/06/28 11:54:44;;;;;;;15.00;8.67;;;20.10;99.90;;;;;;5002046;28;20034;-92
2023/06/28 11:57:10;;;;;;;14.35;8.68;;;20.10;99.90;;;;;;5002543;28;20040;-92
2023/06/28 11:59:38;;;;;;;16.75;8.85;;;20.20;99.90;;;;;;5018388;28;20097;-93
2023/06/28 12:02:06;;;;;;;15.23;9.23;;;20.20;99.90;;;;;;5002152;28;20495;-93
2023/06/28 12:04:33;;;;;;;14.88;9.48;;;20.30;99.90;;;;;;5002328;28;20116;-91
2023/06/28 12:07:01;;;;;;;19.55;9.50;;;20.30;99.90;;;;;;5018099;28;20476;-91
2023/06/28 12:09:29;;;;;;;17.38;9.10;;;20.30;99.90;;;;;;5001901;28;20045;-91
2023/06/28 12:12:02;;;;;;;17.10;8.80;;;20.40;99.90;;;;;;5017860;28;20537;-92
2023/06/28 12:14:30;;;;;;;16.40;9.15;;;20.40;99.90;;;;;;5018296;28;20053;-91
2023/06/28 12:17:00;;;;;;;16.88;9.32;;;20.40;99.90;;;;;;5001780;28;20057;-91
2023/06/28 12:19:27;;;;;;;14.98;9.63;;;20.40;99.90;;;;;;5017895;28;20159;-91
2023/06/28 12:21:54;;;;;;;23.15;10.55;;;20.40;99.90;;;;;;4985882;28;20017;-92
2023/06/28 12:24:24;;;;;;;18.23;10.00;;;20.40;99.90;;;;;;5017994;28;20026;-93
2023/06/28 12:27:00;;;;;;;15.65;9.85;;;20.50;99.90;;;;;;5018455;28;20100;-92
2023/06/28 12:29:29;;;;;;;16.45;9.80;;;20.50;99.90;;;;;;4985470;28;20056;-93
2023/06/28 12:31:57;;;;;;;19.58;9.77;;;20.50;99.90;;;;;;5035916;28;20021;-91
2023/06/28 12:34:24;;;;;;;15.60;10.20;;;20.60;99.90;;;;;;5000496;28;20025;-91
2023/06/28 12:36:55;;;;;;;16.40;9.15;;;20.60;99.90;;;;;;5017758;28;20033;-93
2023/06/28 12:39:28;;;;;;;19.08;9.95;;;20.60;99.90;;;;;;5019311;28;20028;-93